• Join FlightAware (Why Join?)
  • Login
  • US Flag 
06:33AM EDT


 

Airport Tracker/Info


-or-


 

Live Flight TrackerFlight Track Log ✈ DAL1079 ✈ 23-Mar-2014 ✈ KATL - KMHT

Flight Track Log - Related Links

Times and Time Zones

All times are in EDT time to prevent confusion due to time zone crossing. See the DAL1079 flight status page for this flight to view local times or setup timezone preferences in your user account.

Time Position Orientation Groundspeed Altitude Reporting Facility
EDT Latitude Longitude Course Direction KTS MPH feet Rate Location/Type
07:38PM 33.6500 -84.4667 North 237 273 2,500  Level Atlanta TRACON
07:39PM 33.6667 -84.5333 287° West 234 269 4,500 2,280 Climbing Atlanta TRACON
07:40PM 33.7000 -84.5833 309° West 260 299 6,900 2,040 Climbing Atlanta TRACON
07:41PM 33.9644 -84.2667 North  Level FlightAware Approximate
07:42PM 34.0957 -84.2667 North  Level FlightAware Approximate
07:42PM 33.8769 -84.5142 18° North 278 320 11,300  Level Atlanta Center
07:43PM 34.2270 -84.2667 North  Level FlightAware Approximate
07:43PM 33.9503 -84.3994 52° Northeast 345 397 13,000  Level Atlanta Center
07:44PM 34.0381 -84.3647 18° North 369 425 14,700 2,280 Climbing Atlanta Center
07:45PM 34.1656 -84.3225 15° North 391 450 17,600 2,160 Climbing Atlanta Center
07:46PM 34.2783 -84.2850 15° North 418 481 19,100 1,620 Climbing Atlanta Center
07:47PM 34.3972 -84.2553 12° North 424 488 20,900 1,500 Climbing Atlanta Center
07:48PM 34.5036 -84.2303 11° North 434 499 22,200 1,260 Climbing Atlanta Center
07:49PM 34.6269 -84.2003 11° North 448 516 23,500 1,560 Climbing Atlanta Center
07:50PM 34.7667 -84.1728 North 448 516 25,400 1,560 Climbing Atlanta Center
07:51PM 34.8919 -84.1400 12° North 454 522 26,700 1,260 Climbing Atlanta Center
07:52PM 35.0192 -84.1122 10° North 454 522 28,000 1,320 Climbing Atlanta Center
07:54PM 35.1658 -84.0404 18° North  Level FlightAware Approximate
07:54PM 35.2656 -84.0361 18° North 449 517 30,700  Level Atlanta Center
07:55PM 35.3908 -83.9828 19° North 456 525 31,300 600 Climbing Atlanta Center
07:56PM 35.5158 -83.9292 19° North 462 532 31,900 840 Climbing Atlanta Center
07:57PM 35.6389 -83.8778 19° North 462 532 33,000 540 Climbing Atlanta Center
07:58PM 35.7597 -83.8264 19° North 462 532 33,000  Level Atlanta Center
07:59PM 35.8808 -83.7747 19° North 462 532 33,000  Level Atlanta Center
08:00PM 36.0078 -83.7178 20° North 462 532 33,000  Level Atlanta Center
08:01PM 36.1286 -83.6633 20° North 462 532 33,000  Level Atlanta Center
08:03PM 36.2781 -83.5919 21° North 469 540 33,000  Level Indianapolis Center
08:04PM 36.3997 -83.5386 19° North 469 540 33,000  Level Indianapolis Center
08:05PM 36.5222 -83.4817 20° North 469 540 33,000  Level Indianapolis Center
08:06PM 36.6453 -83.4164 23° Northeast 482 555 33,000  Level Indianapolis Center
08:07PM 36.7603 -83.3131 36° Northeast 505 581 33,000  Level Indianapolis Center
08:08PM 36.8936 -83.1847 38° Northeast 508 585 33,000  Level Indianapolis Center
08:09PM 37.0089 -83.0764 37° Northeast 509 586 33,000  Level Indianapolis Center
08:10PM 37.1236 -82.9672 37° Northeast 509 586 33,000  Level Indianapolis Center
08:11PM 37.2386 -82.8581 37° Northeast 509 586 33,000  Level Indianapolis Center
08:12PM 37.3511 -82.7497 37° Northeast 509 586 33,000  Level Indianapolis Center
08:13PM 37.4625 -82.6436 37° Northeast 505 581 33,000  Level Indianapolis Center
08:14PM 37.5739 -82.5364 37° Northeast 505 581 33,000  Level Indianapolis Center
08:15PM 37.6850 -82.4294 37° Northeast 503 579 33,000  Level Indianapolis Center
08:16PM 37.7961 -82.3231 37° Northeast 501 577 33,000  Level Indianapolis Center
08:17PM 37.9253 -82.1964 38° Northeast 501 577 33,000  Level Indianapolis Center
08:18PM 38.0203 -82.1022 38° Northeast 501 577 33,000  Level Indianapolis Center
08:19PM 38.1311 -81.9925 38° Northeast 502 578 33,000  Level Indianapolis Center
08:20PM 38.2622 -81.8628 38° Northeast 502 578 33,000  Level Indianapolis Center
08:21PM 38.3703 -81.7489 40° Northeast 502 578 33,000  Level Indianapolis Center
08:22PM 38.4656 -81.6133 48° Northeast 512 589 33,000  Level Indianapolis Center
08:23PM 38.5597 -81.4781 48° Northeast 515 593 33,000  Level Indianapolis Center
08:24PM 38.6528 -81.3431 49° Northeast 518 596 33,000  Level Indianapolis Center
08:25PM 38.7664 -81.1794 48° Northeast 518 596 33,000  Level Indianapolis Center
08:26PM 38.8617 -81.0386 49° Northeast 519 597 33,000  Level Indianapolis Center
08:27PM 38.9567 -80.9006 48° Northeast 519 597 33,000  Level Indianapolis Center
08:28PM 39.0525 -80.7597 49° Northeast 520 598 33,000  Level Indianapolis Center
08:29PM 39.1519 -80.6231 47° Northeast 521 600 33,000  Level Indianapolis Center
08:30PM 39.2511 -80.4867 47° Northeast 521 600 33,000  Level Indianapolis Center
08:31PM 39.3481 -80.3508 47° Northeast 520 598 33,000  Level Indianapolis Center
08:32PM 39.4433 -80.2142 48° Northeast 513 590 33,000  Level Indianapolis Center
08:33PM 39.5461 -80.0697 47° Northeast 512 589 33,000  Level Cleveland Center
08:34PM 39.6383 -79.9325 49° Northeast 510 587 33,000  Level Cleveland Center
08:35PM 39.7311 -79.7961 48° Northeast 509 586 33,000  Level Cleveland Center
08:36PM 39.8228 -79.6600 49° Northeast 507 583 33,000  Level Cleveland Center
08:37PM 39.9150 -79.5228 49° Northeast 507 583 33,000  Level Cleveland Center
08:38PM 40.0256 -79.3581 49° Northeast 507 583 33,000  Level Cleveland Center
08:39PM 40.1056 -79.2369 49° Northeast 509 586 33,000  Level Cleveland Center
08:40PM 40.2186 -79.0678 49° Northeast 515 593 33,000  Level Cleveland Center
08:41PM 40.3114 -78.9256 49° Northeast 515 593 33,000  Level Cleveland Center
08:43PM 40.4058 -78.7839 49° Northeast 516 594 33,000  Level Cleveland Center
08:44PM 40.5008 -78.6392 49° Northeast 526 605 33,000  Level Cleveland Center
08:45PM 40.5931 -78.4961 50° Northeast 524 603 33,000  Level Cleveland Center
08:46PM 40.7031 -78.3267 49° Northeast 520 598 33,000  Level Cleveland Center
08:47PM 40.7942 -78.1864 49° Northeast 516 594 33,000  Level Cleveland Center
08:48PM 40.8853 -78.0458 49° Northeast 513 590 33,000  Level Cleveland Center
08:49PM 40.9650 -77.8881 56° Northeast 523 602 33,000  Level Cleveland Center
08:50PM 41.0381 -77.7250 59° Northeast 524 603 33,000  Level Cleveland Center
08:51PM 41.1272 -77.5219 60° Northeast 531 611 33,000  Level Cleveland Center
08:52PM 41.2019 -77.3533 59° Northeast 531 611 33,000  Level Cleveland Center
08:53PM 41.2758 -77.1839 60° Northeast 532 612 33,000  Level Cleveland Center
08:54PM 41.3481 -77.0167 60° Northeast 528 608 33,000  Level Cleveland Center
08:55PM 41.4203 -76.8467 60° Northeast 528 608 33,000  Level Cleveland Center
08:56PM 41.4933 -76.6783 60° Northeast 528 608 33,000  Level Cleveland Center
08:57PM 41.5950 -76.4389 60° Northeast 529 609 33,000  Level Boston Center
08:58PM 41.6656 -76.2689 61° Northeast 519 597 33,000  Level Boston Center
08:59PM 41.7386 -76.0992 60° Northeast 519 597 33,000  Level Boston Center
09:00PM 41.8103 -75.9272 61° Northeast 523 602 33,000  Level Boston Center
09:01PM 41.8822 -75.7553 61° Northeast 526 605 33,000  Level Boston Center
09:02PM 41.9528 -75.5836 61° Northeast 527 606 33,000  Level Boston Center
09:03PM 42.0233 -75.4097 61° Northeast 527 606 33,000  Level Boston Center
09:04PM 42.0894 -75.2358 63° Northeast 526 605 33,000 -300 Level Boston Center
09:05PM 42.1347 -75.0619 71° East 533 613 32,500 -1,020 Descending Boston Center
09:06PM 42.1900 -74.8400 71° East 528 608 31,000 -1,680 Descending Boston Center
09:07PM 42.2358 -74.6567 71° East 522 601 29,200 -1,020 Descending Boston Center
09:08PM 42.2825 -74.4697 71° East 523 602 29,000 -120 Descending Boston Center
09:09PM 42.3314 -74.2753 71° East 540 621 29,000 -780 Level Boston Center
09:10PM 42.3400 -74.0783 87° East 531 611 27,400 -1,740 Descending Boston Center
09:11PM 42.3403 -73.8786 90° East 531 611 25,600 -1,380 Descending Boston Center
09:12PM 42.3519 -73.6797 85° East 532 612 24,600 -840 Descending Boston Center
09:13PM 42.3997 -73.4950 71° East 524 603 24,000 -1,080 Descending Boston Center
09:14PM 42.4489 -73.3139 70° East 519 597 22,500 -1,440 Descending Boston Center
09:15PM 42.4981 -73.1358 69° East 505 581 21,100 -1,320 Descending Boston Center
09:16PM 42.5483 -72.9550 69° East 492 566 19,800 -1,380 Descending Boston Center
09:17PM 42.5978 -72.7628 71° East 486 559 18,400 -1,380 Descending Boston Center
09:19PM 42.6397 -72.6119 69° East 475 547 17,100 -1,680 Descending Boston Center
09:20PM 42.6839 -72.4481 70° East 460 529 15,100 -1,800 Descending Boston Center
09:21PM 42.7231 -72.2969 71° East 424 488 13,500 -1,740 Descending Boston Center
09:22PM 42.7633 -72.1503 69° East 360 414 11,700 -1,740 Descending Boston Center
09:23PM 42.7939 -72.0308 71° East 336 387 10,000 -1,500 Descending Boston Center
09:24PM 42.7867 -71.9186 95° East 300 345 8,700 -1,380 Descending Boston Center
09:25PM 42.7767 -71.8111 97° East 289 333 7,300 -840 Descending Boston Center
09:26PM 42.7656 -71.6981 98° East 284 327 7,000 -840 Descending Boston Center
09:27PM 42.7544 -71.5911 98° East 285 328 5,600 -1,260 Descending Boston Center
09:28PM 42.7608 -71.4933 85° East 254 292 4,500 -1,200 Descending Boston Center
09:29PM 42.7722 -71.4167 79° East 209 241 3,300 -1,260 Descending Boston Center
09:30PM 42.8111 -71.3758 38° Northeast 170 196 2,000 -720 Descending Boston Center
09:31PM 42.8528 -71.3861 350° North 155 178 1,900 -480 Descending Boston Center
09:32PM 42.8853 -71.4056 336° Northwest 131 151 1,100 -780 Descending Boston Center
09:33PM 42.9172 -71.4242 337° Northwest 128 147 400 -720 Descending Boston Center